Time;durP1;ratioP1;P1;durP2;ratioP2;P2;SDS_P1;SDS_P2;PMS_P1;PMS_P2;Temp;Humidity;BMP_temperature;BMP_pressure;BME280_temperature;BME280_humidity;BME280_pressure;Samples;Min_cycle;Max_cycle;Signal;HPM_P1;HPM_P2
2022/07/26 00:02:00;;;;;;;5.83;2.40;;;25.50;1.00;;;;;;4925216;29;20479;-76
2022/07/26 00:04:26;;;;;;;4.57;2.37;;;25.50;1.00;;;;;;4929505;29;20464;-76
2022/07/26 00:06:52;;;;;;;8.57;2.40;;;25.50;1.00;;;;;;4930884;29;20887;-76
2022/07/26 00:09:18;;;;;;;7.20;2.30;;;25.50;1.00;;;;;;4925848;29;20189;-76
2022/07/26 00:11:43;;;;;;;4.23;2.40;;;25.50;1.00;;;;;;4929770;29;20212;-76
2022/07/26 00:14:09;;;;;;;3.70;2.47;;;25.50;1.00;;;;;;4926235;29;20560;-75
2022/07/26 00:16:36;;;;;;;3.60;2.40;;;25.50;1.00;;;;;;4929696;29;20177;-76
2022/07/26 00:19:02;;;;;;;4.83;2.50;;;25.50;1.00;;;;;;4928164;29;20199;-75
2022/07/26 00:21:27;;;;;;;3.00;2.20;;;25.50;1.00;;;;;;4929175;29;21002;-76
2022/07/26 00:23:53;;;;;;;7.13;2.20;;;25.40;1.00;;;;;;4944712;29;20185;-75
2022/07/26 00:26:18;;;;;;;4.17;2.73;;;25.50;1.00;;;;;;4930953;29;20185;-75
2022/07/26 00:28:44;;;;;;;5.43;2.40;;;25.50;1.00;;;;;;4929576;29;20287;-76
2022/07/26 00:31:11;;;;;;;3.00;2.30;;;25.50;1.00;;;;;;4926303;29;20197;-76
2022/07/26 00:33:38;;;;;;;4.20;2.50;;;25.50;1.00;;;;;;4929010;29;20180;-75
2022/07/26 00:36:03;;;;;;;4.60;2.20;;;25.50;1.00;;;;;;4930541;29;20476;-75
2022/07/26 00:38:29;;;;;;;3.30;2.20;;;25.50;1.00;;;;;;4932306;29;20498;-76
2022/07/26 00:40:54;;;;;;;5.00;2.30;;;25.50;1.00;;;;;;4947974;29;20220;-75
2022/07/26 00:43:20;;;;;;;5.13;2.27;;;25.40;1.00;;;;;;4934533;29;20255;-76
2022/07/26 00:45:45;;;;;;;4.10;2.57;;;25.30;1.00;;;;;;4933156;29;20263;-76
2022/07/26 00:48:11;;;;;;;3.40;2.40;;;25.30;1.00;;;;;;4933560;29;20173;-76
2022/07/26 00:50:37;;;;;;;4.53;2.53;;;25.30;1.00;;;;;;4926248;29;20193;-76
2022/07/26 00:53:02;;;;;;;7.90;2.57;;;25.20;1.00;;;;;;4943958;28;20211;-76
2022/07/26 00:55:28;;;;;;;4.23;2.50;;;25.10;1.00;;;;;;4949788;29;20188;-75
2022/07/26 00:57:54;;;;;;;3.70;2.50;;;25.00;1.00;;;;;;4933474;29;20215;-75
2022/07/26 01:00:26;;;;;;;4.53;2.67;;;25.00;1.00;;;;;;4929648;29;20220;-76
2022/07/26 01:02:52;;;;;;;5.43;2.60;;;25.10;1.00;;;;;;4930546;29;20299;-76
2022/07/26 01:05:18;;;;;;;4.87;2.57;;;25.00;1.00;;;;;;4932991;29;20432;-76
2022/07/26 01:07:45;;;;;;;4.20;2.40;;;25.00;1.00;;;;;;4947143;29;20967;-76
2022/07/26 01:10:11;;;;;;;4.27;2.30;;;24.90;1.00;;;;;;4933593;29;20263;-76
2022/07/26 01:12:41;;;;;;;4.40;2.70;;;24.90;1.00;;;;;;4930787;29;20448;-76
2022/07/26 01:15:08;;;;;;;4.30;2.40;;;24.80;1.00;;;;;;4934691;29;20412;-76
2022/07/26 01:17:34;;;;;;;3.57;2.40;;;24.80;1.00;;;;;;4948187;29;20445;-75
2022/07/26 01:20:00;;;;;;;4.70;2.40;;;24.80;1.00;;;;;;4946431;29;20440;-76
2022/07/26 01:22:25;;;;;;;3.70;2.37;;;24.70;1.00;;;;;;4925474;29;20201;-76
2022/07/26 01:24:51;;;;;;;4.50;2.23;;;25.00;1.00;;;;;;4932302;28;20181;-76
2022/07/26 01:27:17;;;;;;;4.23;2.53;;;24.70;1.00;;;;;;4934038;29;20296;-76
2022/07/26 01:29:43;;;;;;;5.53;2.50;;;24.70;1.00;;;;;;4946203;29;20563;-76
2022/07/26 01:32:09;;;;;;;9.97;2.93;;;24.70;1.00;;;;;;4927378;29;20650;-75
2022/07/26 01:34:34;;;;;;;4.80;2.60;;;24.50;1.00;;;;;;4929550;29;20440;-76
2022/07/26 01:37:00;;;;;;;5.80;2.80;;;24.40;1.00;;;;;;4934811;29;20271;-75
2022/07/26 01:39:26;;;;;;;4.93;2.63;;;24.20;1.00;;;;;;4939447;29;20596;-76
2022/07/26 01:41:52;;;;;;;5.70;2.80;;;24.40;1.00;;;;;;4931609;29;20228;-76
2022/07/26 01:44:17;;;;;;;6.33;2.43;;;24.30;1.00;;;;;;4932398;29;20187;-76
2022/07/26 01:46:43;;;;;;;3.87;2.50;;;24.20;1.00;;;;;;4931894;29;20440;-76
2022/07/26 01:49:08;;;;;;;5.53;2.93;;;24.30;1.00;;;;;;4926510;29;20177;-76
2022/07/26 01:51:34;;;;;;;3.70;2.37;;;24.40;1.00;;;;;;4922194;29;20205;-76
2022/07/26 01:54:00;;;;;;;4.70;2.47;;;24.20;1.00;;;;;;4933693;29;20173;-76
2022/07/26 01:56:26;;;;;;;6.10;2.23;;;24.20;1.00;;;;;;4932338;29;20184;-76
2022/07/26 01:58:52;;;;;;;9.13;2.70;;;24.20;1.00;;;;;;4931166;29;21204;-75
2022/07/26 02:01:17;;;;;;;6.17;2.57;;;24.20;1.00;;;;;;4928304;29;20303;-75
2022/07/26 02:03:43;;;;;;;6.90;2.57;;;24.00;1.00;;;;;;4932824;29;20275;-75
2022/07/26 02:06:09;;;;;;;4.87;2.50;;;24.00;1.00;;;;;;4932710;29;20181;-75
2022/07/26 02:08:34;;;;;;;7.80;2.67;;;24.00;1.00;;;;;;4932736;29;20611;-75
2022/07/26 02:11:00;;;;;;;4.10;2.90;;;23.80;1.00;;;;;;4928378;29;20200;-75
2022/07/26 02:13:46;;;;;;;4.50;2.73;;;23.80;1.00;;;;;;4931255;29;20184;-75
2022/07/26 02:16:14;;;;;;;9.33;2.87;;;23.60;1.00;;;;;;4924312;29;20201;-75
2022/07/26 02:18:41;;;;;;;4.10;2.80;;;23.50;1.00;;;;;;4932472;29;20476;-75
2022/07/26 02:21:07;;;;;;;9.10;2.53;;;23.40;1.00;;;;;;4946268;28;20456;-75
2022/07/26 02:23:33;;;;;;;6.00;2.53;;;24.80;1.00;;;;;;4947052;29;20460;-75
2022/07/26 02:25:59;;;;;;;4.80;2.67;;;23.30;1.00;;;;;;4947131;29;20173;-74
2022/07/26 02:28:25;;;;;;;7.47;3.10;;;23.30;1.00;;;;;;4932618;29;20440;-75
2022/07/26 02:30:51;;;;;;;5.27;2.80;;;23.20;1.00;;;;;;4933331;29;20432;-75
2022/07/26 02:33:18;;;;;;;6.40;2.77;;;23.20;1.00;;;;;;4930472;29;20432;-75
2022/07/26 02:35:44;;;;;;;4.00;2.50;;;23.20;1.00;;;;;;4931829;29;20276;-75
2022/07/26 02:38:13;;;;;;;3.40;2.63;;;23.20;1.00;;;;;;4930642;29;20904;-76
2022/07/26 02:40:39;;;;;;;9.20;3.10;;;23.10;1.00;;;;;;4932839;29;20324;-75
2022/07/26 02:43:06;;;;;;;6.50;2.83;;;23.10;1.00;;;;;;4930993;29;20548;-75
2022/07/26 02:45:32;;;;;;;5.27;2.67;;;23.00;1.00;;;;;;4932407;29;20431;-75
2022/07/26 02:47:58;;;;;;;6.90;2.80;;;23.00;1.00;;;;;;4939546;29;20950;-75
2022/07/26 02:50:25;;;;;;;6.40;2.83;;;22.60;1.00;;;;;;4931475;29;20572;-76
2022/07/26 02:52:53;;;;;;;4.83;2.90;;;22.90;1.00;;;;;;4931432;29;20381;-76
2022/07/26 02:55:21;;;;;;;6.43;2.80;;;22.90;1.00;;;;;;4933183;29;20511;-75
2022/07/26 02:57:47;;;;;;;5.13;2.73;;;22.90;1.00;;;;;;4931436;29;20436;-75
2022/07/26 03:00:15;;;;;;;4.03;2.60;;;22.90;1.00;;;;;;4932868;29;20821;-76
2022/07/26 03:02:40;;;;;;;3.63;2.53;;;23.00;1.00;;;;;;4927131;29;20235;-75
2022/07/26 03:05:07;;;;;;;7.93;2.70;;;23.00;1.00;;;;;;4943592;29;20456;-75
2022/07/26 03:07:33;;;;;;;7.83;2.97;;;23.00;1.00;;;;;;4941908;29;20184;-75
2022/07/26 03:09:59;;;;;;;4.03;2.80;;;22.90;1.00;;;;;;4931385;29;20443;-76
2022/07/26 03:12:25;;;;;;;5.50;2.90;;;22.90;1.00;;;;;;4931272;29;20408;-75
2022/07/26 03:14:51;;;;;;;6.27;2.97;;;22.80;1.00;;;;;;4930928;29;20539;-75
2022/07/26 03:17:17;;;;;;;4.70;2.97;;;22.80;1.00;;;;;;4926691;29;20445;-75
2022/07/26 03:19:43;;;;;;;5.47;3.10;;;23.10;1.00;;;;;;4928263;29;20503;-75
2022/07/26 03:22:09;;;;;;;9.13;3.97;;;22.80;1.00;;;;;;4930811;29;20252;-75
2022/07/26 03:24:34;;;;;;;4.53;2.80;;;22.80;1.00;;;;;;4945951;29;20547;-75
2022/07/26 03:27:00;;;;;;;7.53;3.23;;;22.80;1.00;;;;;;4929418;29;20180;-75
2022/07/26 03:29:25;;;;;;;5.10;3.20;;;22.80;1.00;;;;;;4931343;29;20184;-75
2022/07/26 03:31:51;;;;;;;5.83;3.10;;;22.70;1.00;;;;;;4930654;29;20428;-75
2022/07/26 03:34:17;;;;;;;7.00;3.40;;;22.70;1.00;;;;;;4931233;29;20184;-75
2022/07/26 03:36:42;;;;;;;7.40;3.20;;;22.80;1.00;;;;;;4929278;29;20189;-75
2022/07/26 03:39:08;;;;;;;4.50;3.10;;;22.90;1.00;;;;;;4930607;29;21018;-75
2022/07/26 03:41:34;;;;;;;4.53;2.83;;;22.80;1.00;;;;;;4930677;29;20617;-75
2022/07/26 03:43:59;;;;;;;7.40;2.90;;;22.80;1.00;;;;;;4923737;29;20722;-75
2022/07/26 03:46:25;;;;;;;5.03;2.90;;;22.70;1.00;;;;;;4944804;29;20173;-75
2022/07/26 03:48:50;;;;;;;6.13;3.07;;;22.70;1.00;;;;;;4931425;29;20181;-75
2022/07/26 03:51:16;;;;;;;5.80;2.70;;;22.70;1.00;;;;;;4930903;29;20287;-75
2022/07/26 03:53:41;;;;;;;5.93;2.80;;;22.70;1.00;;;;;;4930494;29;20548;-75
2022/07/26 03:58:51;;;;;;;5.70;3.30;;;22.70;1.00;;;;;;4931751;29;20276;-75
2022/07/26 04:01:17;;;;;;;4.83;3.00;;;22.60;1.00;;;;;;4928873;29;21086;-75
2022/07/26 04:03:42;;;;;;;5.47;2.80;;;22.60;1.00;;;;;;4928712;29;20243;-75
2022/07/26 04:06:09;;;;;;;11.07;3.27;;;22.50;1.00;;;;;;4945911;29;20196;-75
2022/07/26 04:08:34;;;;;;;7.23;2.90;;;22.50;1.00;;;;;;4930949;29;20184;-75
2022/07/26 04:11:00;;;;;;;5.13;2.67;;;22.40;1.00;;;;;;4945894;28;20432;-74
2022/07/26 04:13:25;;;;;;;6.17;3.10;;;22.50;1.00;;;;;;4929803;29;20188;-75
2022/07/26 04:15:51;;;;;;;7.37;2.87;;;22.50;1.00;;;;;;4943747;29;20245;-74
2022/07/26 04:18:16;;;;;;;6.07;3.10;;;22.40;1.00;;;;;;4925828;29;20193;-75
2022/07/26 04:20:42;;;;;;;4.10;3.10;;;22.60;1.00;;;;;;4921935;29;20234;-75
2022/07/26 04:23:08;;;;;;;8.10;3.10;;;22.30;1.00;;;;;;4943894;29;20587;-75
2022/07/26 04:25:34;;;;;;;4.70;3.17;;;22.30;1.00;;;;;;4945483;29;20180;-75
2022/07/26 04:28:00;;;;;;;4.87;3.40;;;22.40;1.00;;;;;;4927557;29;20165;-77
2022/07/26 04:30:26;;;;;;;5.50;3.23;;;22.40;1.00;;;;;;4944446;28;20212;-74
2022/07/26 04:32:51;;;;;;;8.93;3.00;;;22.50;1.00;;;;;;4929362;29;20455;-75
2022/07/26 04:35:17;;;;;;;10.03;3.33;;;22.50;1.00;;;;;;4945547;29;20227;-75
2022/07/26 04:37:44;;;;;;;4.90;3.03;;;22.60;1.00;;;;;;4933265;29;20177;-75
2022/07/26 04:40:14;;;;;;;5.80;3.00;;;22.60;1.00;;;;;;4949901;28;20183;-75
2022/07/26 04:42:39;;;;;;;4.83;3.07;;;22.60;1.00;;;;;;4931535;28;20543;-75
2022/07/26 04:45:06;;;;;;;6.10;3.30;;;22.50;1.00;;;;;;4932004;29;20567;-75
2022/07/26 04:47:31;;;;;;;7.63;3.30;;;22.50;1.00;;;;;;4931597;29;20169;-75
2022/07/26 04:49:57;;;;;;;4.90;3.20;;;22.50;1.00;;;;;;4931077;29;20423;-75
2022/07/26 04:52:23;;;;;;;5.47;3.30;;;22.50;1.00;;;;;;4930339;29;20184;-75
2022/07/26 04:54:48;;;;;;;4.20;2.90;;;22.50;1.00;;;;;;4931518;29;20271;-75
2022/07/26 04:57:13;;;;;;;4.57;3.30;;;22.50;1.00;;;;;;4930717;29;20228;-75
2022/07/26 04:59:39;;;;;;;6.40;2.90;;;22.50;1.00;;;;;;4931587;29;20181;-75
2022/07/26 05:02:05;;;;;;;10.50;3.80;;;22.40;1.00;;;;;;4929279;29;20247;-75
2022/07/26 05:04:30;;;;;;;4.00;3.00;;;22.40;1.00;;;;;;4930604;29;20593;-75
2022/07/26 05:07:01;;;;;;;4.87;3.37;;;22.50;1.00;;;;;;4946094;29;20254;-75
2022/07/26 05:09:27;;;;;;;4.90;3.23;;;22.70;1.00;;;;;;4931351;29;20184;-75
2022/07/26 05:11:53;;;;;;;4.27;2.70;;;22.60;1.00;;;;;;4929814;29;20462;-74
2022/07/26 05:14:19;;;;;;;4.47;3.00;;;22.60;1.00;;;;;;4931514;29;20942;-75
2022/07/26 05:16:44;;;;;;;5.63;2.87;;;22.70;1.00;;;;;;4930977;29;20432;-75
2022/07/26 05:19:10;;;;;;;5.63;3.30;;;22.90;1.00;;;;;;4930745;29;20196;-75
2022/07/26 05:21:36;;;;;;;6.47;3.10;;;22.90;1.00;;;;;;4930856;29;20679;-75
2022/07/26 05:24:01;;;;;;;7.07;3.23;;;22.90;1.00;;;;;;4931941;29;20636;-75
2022/07/26 05:26:27;;;;;;;8.50;3.33;;;23.00;1.00;;;;;;4933273;29;20181;-75
2022/07/26 05:28:53;;;;;;;6.80;3.37;;;23.00;1.00;;;;;;4933146;29;20243;-75
2022/07/26 05:31:18;;;;;;;6.03;3.30;;;23.00;1.00;;;;;;4948816;28;20484;-75
2022/07/26 05:33:44;;;;;;;6.22;3.22;;;23.00;1.00;;;;;;4932965;29;20489;-75
2022/07/26 05:36:10;;;;;;;7.30;3.20;;;23.10;1.00;;;;;;4949005;29;20191;-75
2022/07/26 05:38:36;;;;;;;5.20;3.33;;;23.30;1.00;;;;;;4933386;29;20332;-75
2022/07/26 05:41:01;;;;;;;5.83;3.30;;;23.20;1.00;;;;;;4932782;29;21101;-75
2022/07/26 05:43:27;;;;;;;8.00;3.47;;;23.20;1.00;;;;;;4935624;29;20208;-75
2022/07/26 05:45:53;;;;;;;5.63;3.20;;;23.20;1.00;;;;;;4930210;29;20184;-75
2022/07/26 05:48:18;;;;;;;8.00;3.10;;;23.20;1.00;;;;;;4933338;29;20204;-75
2022/07/26 05:50:44;;;;;;;4.87;2.70;;;23.50;1.00;;;;;;4931671;29;20193;-75
2022/07/26 05:53:09;;;;;;;5.40;3.30;;;23.50;1.00;;;;;;4933633;29;20605;-75
2022/07/26 05:55:35;;;;;;;4.90;2.73;;;23.60;1.00;;;;;;4929235;29;20251;-75
2022/07/26 05:58:00;;;;;;;4.50;2.40;;;23.60;1.00;;;;;;4930513;29;20197;-75
2022/07/26 06:00:26;;;;;;;5.10;2.60;;;23.40;1.00;;;;;;4929390;29;20305;-75
2022/07/26 06:02:51;;;;;;;5.73;2.80;;;23.30;1.00;;;;;;4931058;29;20687;-75
2022/07/26 06:05:17;;;;;;;12.90;3.10;;;23.20;1.00;;;;;;4932789;29;20261;-74
2022/07/26 06:07:42;;;;;;;4.00;2.63;;;23.30;1.00;;;;;;4930330;29;20624;-75
2022/07/26 06:10:08;;;;;;;5.20;2.83;;;23.40;1.00;;;;;;4933383;29;20259;-75
2022/07/26 06:12:34;;;;;;;3.90;2.33;;;23.40;1.00;;;;;;4932944;29;20172;-75
2022/07/26 06:14:59;;;;;;;4.07;2.40;;;23.50;1.00;;;;;;4932822;29;20656;-75
2022/07/26 06:17:28;;;;;;;4.50;3.03;;;23.60;1.00;;;;;;4934735;29;20181;-75
2022/07/26 06:19:54;;;;;;;4.23;2.40;;;23.70;1.00;;;;;;4934025;29;20165;-75
2022/07/26 06:22:20;;;;;;;5.23;2.43;;;23.90;1.00;;;;;;4948521;29;20448;-75
2022/07/26 06:24:45;;;;;;;5.20;2.23;;;23.90;1.00;;;;;;4934554;29;20424;-75
2022/07/26 06:27:11;;;;;;;4.73;2.67;;;23.90;1.00;;;;;;4934011;29;20625;-75
2022/07/26 06:29:36;;;;;;;4.73;2.33;;;23.90;1.00;;;;;;4933009;29;20584;-75
2022/07/26 06:32:02;;;;;;;6.07;2.50;;;23.80;1.00;;;;;;4934094;29;20200;-75
2022/07/26 06:34:28;;;;;;;9.03;2.53;;;23.90;1.00;;;;;;4933868;29;20271;-75
2022/07/26 06:36:54;;;;;;;5.87;2.47;;;23.90;1.00;;;;;;4948595;28;20559;-75
2022/07/26 06:39:19;;;;;;;6.63;2.73;;;24.00;1.00;;;;;;4934222;29;20595;-75
2022/07/26 06:41:45;;;;;;;3.73;2.17;;;24.00;1.00;;;;;;4933100;29;20212;-75
2022/07/26 06:44:10;;;;;;;4.63;2.60;;;24.10;1.00;;;;;;4933539;29;20168;-75
2022/07/26 06:46:36;;;;;;;7.80;2.43;;;24.10;1.00;;;;;;4934392;29;20209;-75
2022/07/26 06:49:02;;;;;;;4.30;2.50;;;24.10;1.00;;;;;;4933907;29;20181;-75
2022/07/26 06:51:28;;;;;;;5.80;2.63;;;24.20;1.00;;;;;;4933184;29;20189;-75
2022/07/26 06:53:53;;;;;;;5.97;2.53;;;24.10;1.00;;;;;;4934249;29;20185;-75
2022/07/26 06:56:19;;;;;;;5.10;2.90;;;23.90;1.00;;;;;;4932604;29;20184;-75
2022/07/26 06:58:44;;;;;;;6.70;2.73;;;23.80;1.00;;;;;;4933446;29;20259;-75
2022/07/26 07:01:10;;;;;;;6.93;2.60;;;24.00;1.00;;;;;;4933362;29;20211;-75
2022/07/26 07:03:36;;;;;;;3.60;2.20;;;23.90;1.00;;;;;;4933654;29;20214;-75
2022/07/26 07:06:02;;;;;;;3.40;2.20;;;23.90;1.00;;;;;;4932013;29;20268;-75
2022/07/26 07:08:27;;;;;;;4.43;2.13;;;23.90;1.00;;;;;;4933428;29;20619;-75
2022/07/26 07:10:54;;;;;;;3.63;2.20;;;23.90;1.00;;;;;;4932807;29;20189;-75
2022/07/26 07:13:20;;;;;;;5.33;1.80;;;23.70;1.00;;;;;;4932345;29;20173;-75
2022/07/26 07:15:46;;;;;;;4.03;2.20;;;23.60;1.00;;;;;;4931536;29;20919;-75
2022/07/26 07:18:11;;;;;;;3.50;1.97;;;23.70;1.00;;;;;;4933272;29;20203;-75
2022/07/26 07:20:38;;;;;;;3.70;2.00;;;23.80;1.00;;;;;;4932685;29;20303;-75
2022/07/26 07:23:04;;;;;;;4.60;2.30;;;24.00;1.00;;;;;;4932113;29;20189;-75
2022/07/26 07:25:30;;;;;;;3.93;2.40;;;24.00;1.00;;;;;;4947401;29;20428;-75
2022/07/26 07:27:55;;;;;;;4.80;2.10;;;24.10;1.00;;;;;;4929983;29;21220;-75
2022/07/26 07:30:21;;;;;;;11.83;2.63;;;24.50;1.00;;;;;;4931541;29;20283;-77
2022/07/26 07:32:46;;;;;;;5.50;2.10;;;24.60;1.00;;;;;;4929078;29;20185;-75
2022/07/26 07:35:12;;;;;;;5.40;2.10;;;24.90;1.00;;;;;;4927436;29;20181;-75
2022/07/26 07:37:37;;;;;;;4.13;2.30;;;25.30;1.00;;;;;;4931811;29;21172;-75
2022/07/26 07:40:07;;;;;;;3.80;2.30;;;24.70;1.00;;;;;;4939270;29;20191;-75
2022/07/26 07:42:33;;;;;;;7.20;2.50;;;24.50;1.00;;;;;;4930419;29;20412;-75
2022/07/26 07:44:58;;;;;;;7.97;2.40;;;24.30;1.00;;;;;;4931894;29;20873;-76
2022/07/26 07:47:24;;;;;;;4.97;2.10;;;24.20;1.00;;;;;;4931987;28;20259;-75
2022/07/26 07:49:49;;;;;;;9.40;2.57;;;24.40;1.00;;;;;;4928276;29;20173;-75
2022/07/26 07:52:15;;;;;;;4.93;2.10;;;24.80;1.00;;;;;;4937011;29;20555;-75
2022/07/26 07:54:40;;;;;;;4.33;2.10;;;24.90;1.00;;;;;;4931162;29;20185;-75
2022/07/26 07:57:06;;;;;;;3.33;2.10;;;25.10;1.00;;;;;;4946223;29;20288;-75
2022/07/26 07:59:31;;;;;;;3.97;2.30;;;25.40;1.00;;;;;;4930320;29;21526;-75
2022/07/26 08:01:57;;;;;;;3.00;1.90;;;25.70;1.00;;;;;;4931029;29;20755;-75
2022/07/26 08:04:24;;;;;;;4.60;2.00;;;26.00;1.00;;;;;;4930282;29;20201;-75
2022/07/26 08:06:50;;;;;;;3.10;2.30;;;26.10;1.00;;;;;;4931985;29;20408;-75
2022/07/26 08:09:15;;;;;;;3.10;2.10;;;26.20;1.00;;;;;;4931051;29;20177;-76
2022/07/26 08:11:41;;;;;;;3.53;2.00;;;26.70;1.00;;;;;;4931089;29;20208;-75
2022/07/26 08:14:06;;;;;;;6.43;2.20;;;27.10;1.00;;;;;;4930511;29;20187;-75
2022/07/26 08:16:32;;;;;;;5.83;2.10;;;27.40;1.00;;;;;;4929618;29;20260;-76
2022/07/26 08:18:58;;;;;;;7.10;2.13;;;27.90;1.00;;;;;;4930521;29;20504;-75
2022/07/26 08:21:26;;;;;;;7.10;2.03;;;27.80;1.00;;;;;;4930934;29;20619;-75
2022/07/26 08:23:52;;;;;;;3.67;2.10;;;27.10;1.00;;;;;;4928138;29;20188;-76
2022/07/26 08:26:17;;;;;;;3.67;2.00;;;26.50;1.00;;;;;;4929495;29;20601;-76
2022/07/26 08:28:43;;;;;;;4.23;1.90;;;26.30;1.00;;;;;;4930513;29;20307;-76
2022/07/26 08:31:08;;;;;;;3.57;1.90;;;26.90;1.00;;;;;;4926425;29;20224;-76
2022/07/26 08:33:34;;;;;;;6.13;2.10;;;27.60;1.00;;;;;;4929876;29;20188;-76
2022/07/26 08:36:00;;;;;;;7.53;2.00;;;27.60;1.00;;;;;;4929416;29;20188;-76
2022/07/26 08:38:25;;;;;;;3.10;1.70;;;27.10;1.00;;;;;;4924450;29;20244;-76
2022/07/26 08:40:51;;;;;;;3.63;2.10;;;27.20;1.00;;;;;;4924359;29;20884;-76
2022/07/26 08:43:17;;;;;;;8.73;2.00;;;27.30;1.00;;;;;;4944027;28;20675;-76
2022/07/26 08:45:44;;;;;;;4.90;1.93;;;27.10;1.00;;;;;;4929260;29;20326;-76
2022/07/26 08:48:10;;;;;;;3.20;1.93;;;27.30;1.00;;;;;;4913166;29;20666;-76
2022/07/26 08:50:36;;;;;;;3.30;1.90;;;28.10;1.00;;;;;;4926023;29;20227;-76
2022/07/26 08:53:05;;;;;;;3.40;1.80;;;28.90;1.00;;;;;;4930783;29;20173;-76
2022/07/26 08:55:31;;;;;;;4.10;1.70;;;29.40;1.00;;;;;;4930668;29;20261;-76
2022/07/26 08:57:56;;;;;;;3.67;1.90;;;29.20;1.00;;;;;;4930561;29;20267;-76
2022/07/26 09:00:24;;;;;;;3.83;1.83;;;29.30;1.00;;;;;;4927279;29;20272;-76
2022/07/26 09:02:50;;;;;;;3.10;1.80;;;29.00;1.00;;;;;;4933368;29;20335;-76
2022/07/26 09:05:18;;;;;;;3.90;1.90;;;28.30;1.00;;;;;;4947087;29;20173;-76
2022/07/26 09:07:44;;;;;;;4.27;2.10;;;27.90;1.00;;;;;;4925908;29;20558;-76
2022/07/26 09:10:12;;;;;;;4.37;2.10;;;27.40;1.00;;;;;;4926458;29;20197;-76
2022/07/26 09:12:39;;;;;;;6.57;1.90;;;27.50;1.00;;;;;;4932674;29;20249;-76
2022/07/26 09:15:07;;;;;;;4.10;2.10;;;27.50;1.00;;;;;;4934538;29;20643;-76
2022/07/26 09:17:39;;;;;;;3.93;1.63;;;27.30;1.00;;;;;;4933212;29;20192;-76
2022/07/26 09:20:08;;;;;;;4.27;1.90;;;27.30;1.00;;;;;;4932785;29;20260;-76
2022/07/26 09:22:33;;;;;;;3.23;1.77;;;27.40;1.00;;;;;;4933005;29;20623;-76
2022/07/26 09:24:59;;;;;;;3.30;1.90;;;27.80;1.00;;;;;;4933082;29;20180;-76
2022/07/26 09:27:35;;;;;;;2.63;1.73;;;29.70;1.00;;;;;;4932342;29;20180;-77
2022/07/26 09:30:06;;;;;;;6.55;2.63;;;31.10;1.00;;;;;;4930269;29;20176;-76
2022/07/26 09:32:31;;;;;;;3.88;1.95;;;32.00;1.00;;;;;;4921378;29;20188;-77
2022/07/26 09:35:12;;;;;;;3.80;1.83;;;32.60;1.00;;;;;;4926263;29;20244;-77
2022/07/26 09:37:42;;;;;;;5.00;1.60;;;33.60;1.00;;;;;;4930698;29;20177;-77
2022/07/26 09:40:10;;;;;;;5.28;1.70;;;33.40;1.00;;;;;;4948472;29;20715;-77
2022/07/26 09:42:37;;;;;;;4.55;1.50;;;33.60;1.00;;;;;;4934045;29;20204;-77
2022/07/26 09:45:15;;;;;;;3.58;1.65;;;33.50;1.00;;;;;;4932403;29;20180;-77
2022/07/26 09:47:40;;;;;;;4.38;1.80;;;32.90;1.00;;;;;;4926731;29;20180;-76
2022/07/26 09:50:14;;;;;;;2.80;1.67;;;31.40;1.00;;;;;;4929879;29;20233;-76
2022/07/26 09:52:55;;;;;;;3.75;1.60;;;31.20;1.00;;;;;;4932666;29;20180;-76
2022/07/26 09:55:21;;;;;;;4.90;1.83;;;30.20;1.00;;;;;;4933061;29;20235;-76
2022/07/26 09:57:46;;;;;;;5.88;1.70;;;29.20;1.00;;;;;;4929549;29;20188;-76
2022/07/26 10:00:12;;;;;;;4.60;1.73;;;28.90;1.00;;;;;;4932735;29;20216;-77
2022/07/26 10:02:38;;;;;;;5.35;1.85;;;29.90;1.00;;;;;;4928572;29;20201;-78
2022/07/26 10:05:05;;;;;;;2.65;1.60;;;31.50;1.00;;;;;;4947414;28;20278;-77
2022/07/26 10:07:31;;;;;;;3.88;1.70;;;33.80;1.00;;;;;;4934331;29;20260;-77
2022/07/26 10:10:03;;;;;;;2.80;1.38;;;36.00;1.00;;;;;;4930837;29;20279;-77
2022/07/26 10:12:31;;;;;;;2.92;1.70;;;37.00;1.00;;;;;;4946343;29;20177;-77
2022/07/26 10:14:56;;;;;;;3.20;1.70;;;35.90;1.00;;;;;;4925162;29;20181;-76
2022/07/26 10:17:28;;;;;;;3.13;1.65;;;34.20;1.00;;;;;;4934573;29;20612;-77
2022/07/26 10:19:57;;;;;;;3.67;1.58;;;32.70;1.00;;;;;;4929011;29;20208;-77
2022/07/26 10:22:35;;;;;;;3.63;1.58;;;31.40;1.00;;;;;;4931434;29;20201;-77
2022/07/26 10:25:18;;;;;;;2.63;1.50;;;30.10;1.00;;;;;;4929756;29;20259;-77
2022/07/26 10:27:46;;;;;;;4.35;1.70;;;29.50;1.00;;;;;;4930637;29;20254;-76
2022/07/26 10:30:18;;;;;;;7.15;1.63;;;29.80;1.00;;;;;;4932864;29;20177;-76
2022/07/26 10:32:58;;;;;;;3.35;1.65;;;29.90;1.00;;;;;;4931297;29;20172;-76
2022/07/26 10:35:43;;;;;;;3.60;1.80;;;30.30;1.00;;;;;;4933913;29;20587;-76
2022/07/26 10:38:11;;;;;;;2.47;1.50;;;30.30;1.00;;;;;;4934544;29;20263;-76
2022/07/26 10:40:58;;;;;;;2.70;1.50;;;30.30;1.00;;;;;;4935652;29;20209;-77
2022/07/26 10:43:25;;;;;;;2.72;1.50;;;30.30;1.00;;;;;;4932785;29;20216;-76
2022/07/26 10:46:12;;;;;;;4.30;1.70;;;30.30;1.00;;;;;;4932728;29;20252;-76
2022/07/26 10:48:58;;;;;;;6.65;2.00;;;30.10;1.00;;;;;;4935381;29;20173;-76
2022/07/26 10:51:26;;;;;;;5.15;1.60;;;30.10;1.00;;;;;;4930792;29;20563;-76
2022/07/26 10:54:03;;;;;;;3.65;1.70;;;30.30;1.00;;;;;;4930735;29;20189;-76
2022/07/26 10:56:29;;;;;;;2.38;1.40;;;30.60;1.00;;;;;;4947950;28;20187;-77
2022/07/26 10:58:55;;;;;;;3.50;1.60;;;31.60;1.00;;;;;;4932113;29;20185;-77
2022/07/26 11:01:20;;;;;;;3.72;1.77;;;31.50;1.00;;;;;;4927038;29;20224;-77
2022/07/26 11:03:46;;;;;;;3.92;1.67;;;31.50;1.00;;;;;;4932859;29;20200;-76
2022/07/26 11:06:16;;;;;;;4.65;1.63;;;30.90;1.00;;;;;;4933129;29;20180;-76
2022/07/26 11:08:44;;;;;;;4.10;1.80;;;30.00;1.00;;;;;;4930858;29;20288;-76
2022/07/26 11:11:10;;;;;;;3.20;1.80;;;29.30;1.00;;;;;;4933231;29;20192;-76
2022/07/26 11:13:36;;;;;;;4.53;1.80;;;30.60;1.00;;;;;;4931757;29;20539;-77
2022/07/26 11:16:03;;;;;;;4.32;1.40;;;33.20;1.00;;;;;;4932750;29;20177;-77
2022/07/26 11:18:34;;;;;;;2.90;1.65;;;35.20;1.00;;;;;;4933509;29;20185;-76
2022/07/26 11:21:10;;;;;;;3.55;1.52;;;35.60;1.00;;;;;;4925562;29;21249;-77
2022/07/26 11:23:38;;;;;;;3.92;1.50;;;34.90;1.00;;;;;;4932042;29;20196;-77
2022/07/26 11:26:16;;;;;;;6.20;1.80;;;33.80;1.00;;;;;;4945512;28;20181;-77
2022/07/26 11:29:01;;;;;;;7.07;1.40;;;34.00;1.00;;;;;;4929969;29;20176;-77
2022/07/26 11:31:33;;;;;;;3.13;1.45;;;35.60;1.00;;;;;;4926411;29;20196;-77
2022/07/26 11:33:58;;;;;;;4.47;1.80;;;35.90;1.00;;;;;;4927907;29;20231;-77
2022/07/26 11:36:31;;;;;;;3.40;1.50;;;36.60;1.00;;;;;;4930442;29;20208;-77
2022/07/26 11:38:58;;;;;;;2.90;1.30;;;38.60;1.00;;;;;;4947490;29;20192;-78
2022/07/26 11:41:27;;;;;;;3.33;1.60;;;39.10;1.00;;;;;;4931718;29;20200;-77
2022/07/26 11:43:54;;;;;;;2.30;1.30;;;37.90;1.00;;;;;;4932089;29;20215;-77
2022/07/26 11:46:20;;;;;;;3.65;1.58;;;36.20;1.00;;;;;;4931661;29;20183;-78
2022/07/26 11:48:50;;;;;;;5.40;1.30;;;35.20;1.00;;;;;;4930958;29;20267;-76
2022/07/26 11:51:21;;;;;;;2.92;1.50;;;34.50;1.00;;;;;;4940644;29;20247;-77
2022/07/26 11:53:48;;;;;;;2.85;1.58;;;33.70;1.00;;;;;;4929615;29;20273;-77
2022/07/26 11:56:17;;;;;;;3.55;1.67;;;33.10;1.00;;;;;;4932011;29;20172;-77
2022/07/26 11:58:45;;;;;;;4.60;1.60;;;32.80;1.00;;;;;;4930729;29;20184;-77
2022/07/26 12:01:13;;;;;;;3.78;1.80;;;33.90;1.00;;;;;;4931910;28;20270;-77
2022/07/26 12:03:40;;;;;;;3.20;1.33;;;36.60;1.00;;;;;;4929592;29;20280;-77
2022/07/26 12:06:12;;;;;;;7.45;1.90;;;38.40;1.00;;;;;;4931066;29;20216;-77
2022/07/26 12:08:39;;;;;;;3.03;1.42;;;37.70;1.00;;;;;;4932206;29;20181;-77
2022/07/26 12:11:05;;;;;;;4.30;1.75;;;36.40;1.00;;;;;;4944112;28;20291;-77
2022/07/26 12:13:31;;;;;;;3.10;1.80;;;35.40;1.00;;;;;;4931931;29;20655;-77
2022/07/26 12:15:56;;;;;;;2.53;1.42;;;35.20;1.00;;;;;;4929255;29;20176;-77
2022/07/26 12:18:27;;;;;;;7.15;1.55;;;34.70;1.00;;;;;;4930697;29;20195;-77
2022/07/26 12:21:02;;;;;;;4.78;1.70;;;33.50;1.00;;;;;;4929135;29;20239;-77
2022/07/26 12:23:43;;;;;;;4.20;1.40;;;32.80;1.00;;;;;;4931387;29;20196;-77
2022/07/26 12:26:26;;;;;;;4.03;1.60;;;32.30;1.00;;;;;;4941684;29;20176;-77
2022/07/26 12:28:53;;;;;;;2.97;1.73;;;31.50;1.00;;;;;;4930321;29;20245;-77
2022/07/26 12:31:27;;;;;;;3.55;1.50;;;31.30;1.00;;;;;;4930237;29;20200;-77
2022/07/26 12:33:53;;;;;;;3.05;1.33;;;32.00;1.00;;;;;;4932390;29;20180;-77
2022/07/26 12:36:20;;;;;;;3.75;1.60;;;33.00;1.00;;;;;;4933556;29;20681;-77
2022/07/26 12:38:46;;;;;;;4.47;1.70;;;33.50;1.00;;;;;;4934307;29;20219;-77
2022/07/26 12:41:11;;;;;;;2.65;1.42;;;34.00;1.00;;;;;;4933551;29;20209;-77
2022/07/26 12:43:38;;;;;;;3.75;1.60;;;34.40;1.00;;;;;;4928767;29;20212;-77
2022/07/26 12:46:04;;;;;;;2.63;1.60;;;36.20;1.00;;;;;;4933680;29;20180;-77
2022/07/26 12:48:30;;;;;;;2.58;1.60;;;37.00;1.00;;;;;;4936687;29;20169;-77
2022/07/26 12:50:57;;;;;;;3.22;1.52;;;37.80;1.00;;;;;;4934447;29;20280;-77
2022/07/26 12:53:22;;;;;;;3.53;1.67;;;38.40;1.00;;;;;;4935871;29;20199;-78
2022/07/26 12:55:48;;;;;;;2.70;1.35;;;38.90;1.00;;;;;;4934802;29;20647;-77
2022/07/26 12:58:13;;;;;;;3.55;1.63;;;39.00;1.00;;;;;;4934487;29;20185;-77
2022/07/26 13:00:38;;;;;;;5.07;1.40;;;40.00;1.00;;;;;;4935575;29;20319;-78